sensor_id;sensor_type;location;lat;lon;timestamp;pressure;altitude;pressure_sealevel;temperature;humidity
38620;BME280;24376;51.986;4.662;2022-09-13T00:01:41;106001.13;;;18.44;100.00
38620;BME280;24376;51.986;4.662;2022-09-13T00:04:06;105981.59;;;18.44;100.00
38620;BME280;24376;51.986;4.662;2022-09-13T00:06:31;105958.78;;;18.46;100.00
38620;BME280;24376;51.986;4.662;2022-09-13T00:08:57;105970.31;;;18.46;100.00
38620;BME280;24376;51.986;4.662;2022-09-13T00:11:27;105927.84;;;18.46;100.00
38620;BME280;24376;51.986;4.662;2022-09-13T00:13:53;105904.63;;;18.44;100.00
38620;BME280;24376;51.986;4.662;2022-09-13T00:16:19;105873.56;;;18.43;100.00
38620;BME280;24376;51.986;4.662;2022-09-13T00:18:44;105847.03;;;18.43;100.00
38620;BME280;24376;51.986;4.662;2022-09-13T00:21:11;105825.78;;;18.43;100.00
38620;BME280;24376;51.986;4.662;2022-09-13T00:23:37;105825.78;;;18.43;100.00
38620;BME280;24376;51.986;4.662;2022-09-13T00:26:04;105797.41;;;18.42;100.00
38620;BME280;24376;51.986;4.662;2022-09-13T00:28:29;105772.69;;;18.43;100.00
38620;BME280;24376;51.986;4.662;2022-09-13T00:30:57;105754.13;;;18.43;100.00
38620;BME280;24376;51.986;4.662;2022-09-13T00:33:22;105754.94;;;18.42;100.00
38620;BME280;24376;51.986;4.662;2022-09-13T00:35:48;105739.00;;;18.42;100.00
38620;BME280;24376;51.986;4.662;2022-09-13T00:38:13;105734.53;;;18.41;100.00
38620;BME280;24376;51.986;4.662;2022-09-13T00:40:38;105737.19;;;18.41;100.00
38620;BME280;24376;51.986;4.662;2022-09-13T00:43:04;105726.56;;;18.41;100.00
38620;BME280;24376;51.986;4.662;2022-09-13T00:45:30;105726.56;;;18.41;100.00
38620;BME280;24376;51.986;4.662;2022-09-13T00:47:59;105721.25;;;18.41;100.00
38620;BME280;24376;51.986;4.662;2022-09-13T00:50:33;105736.69;;;18.46;100.00
38620;BME280;24376;51.986;4.662;2022-09-13T00:53:04;105748.00;;;18.44;100.00
38620;BME280;24376;51.986;4.662;2022-09-13T00:55:40;105754.47;;;18.47;100.00
38620;BME280;24376;51.986;4.662;2022-09-13T00:58:11;105763.56;;;18.51;100.00
38620;BME280;24376;51.986;4.662;2022-09-13T01:00:37;105773.38;;;18.52;100.00
38620;BME280;24376;51.986;4.662;2022-09-13T01:03:04;105769.38;;;18.45;100.00
38620;BME280;24376;51.986;4.662;2022-09-13T01:05:35;105764.63;;;18.41;100.00
38620;BME280;24376;51.986;4.662;2022-09-13T01:08:00;105796.50;;;18.41;100.00
38620;BME280;24376;51.986;4.662;2022-09-13T01:10:26;105838.88;;;18.40;100.00
38620;BME280;24376;51.986;4.662;2022-09-13T01:13:00;105880.50;;;18.41;100.00
38620;BME280;24376;51.986;4.662;2022-09-13T01:15:30;105858.25;;;18.39;100.00
38620;BME280;24376;51.986;4.662;2022-09-13T01:17:58;105845.56;;;18.34;100.00
38620;BME280;24376;51.986;4.662;2022-09-13T01:20:24;105855.84;;;18.30;100.00
38620;BME280;24376;51.986;4.662;2022-09-13T01:25:24;105844.75;;;18.24;100.00
38620;BME280;24376;51.986;4.662;2022-09-13T01:30:26;105888.03;;;18.34;100.00
38620;BME280;24376;51.986;4.662;2022-09-13T01:37:59;105896.00;;;18.23;100.00
38620;BME280;24376;51.986;4.662;2022-09-13T01:48:16;105894.38;;;18.13;100.00
38620;BME280;24376;51.986;4.662;2022-09-13T01:56:08;105900.50;;;18.12;100.00
38620;BME280;24376;51.986;4.662;2022-09-13T01:58:40;105900.59;;;18.14;100.00
38620;BME280;24376;51.986;4.662;2022-09-13T02:01:14;105932.59;;;18.15;100.00
38620;BME280;24376;51.986;4.662;2022-09-13T02:03:44;105942.38;;;18.16;100.00
38620;BME280;24376;51.986;4.662;2022-09-13T02:06:32;105943.19;;;18.15;100.00
38620;BME280;24376;51.986;4.662;2022-09-13T02:08:59;105943.19;;;18.15;100.00
38620;BME280;24376;51.986;4.662;2022-09-13T02:11:26;105922.75;;;18.14;100.00
38620;BME280;24376;51.986;4.662;2022-09-13T02:13:59;105939.59;;;18.15;100.00
38620;BME280;24376;51.986;4.662;2022-09-13T02:16:29;105938.66;;;18.14;100.00
38620;BME280;24376;51.986;4.662;2022-09-13T02:19:00;105950.09;;;18.13;100.00
38620;BME280;24376;51.986;4.662;2022-09-13T02:21:28;105975.03;;;18.15;100.00
38620;BME280;24376;51.986;4.662;2022-09-13T02:23:57;106010.31;;;18.14;100.00
38620;BME280;24376;51.986;4.662;2022-09-13T02:26:24;106030.97;;;18.18;100.00
38620;BME280;24376;51.986;4.662;2022-09-13T02:28:51;106029.13;;;18.17;100.00
38620;BME280;24376;51.986;4.662;2022-09-13T02:31:29;105991.63;;;18.13;100.00
38620;BME280;24376;51.986;4.662;2022-09-13T02:33:58;106029.59;;;18.12;100.00
38620;BME280;24376;51.986;4.662;2022-09-13T02:36:28;105994.06;;;18.10;100.00
38620;BME280;24376;51.986;4.662;2022-09-13T02:38:55;106030.28;;;18.09;100.00
38620;BME280;24376;51.986;4.662;2022-09-13T02:41:31;106036.25;;;18.06;100.00
38620;BME280;24376;51.986;4.662;2022-09-13T02:44:07;106023.69;;;18.04;100.00
38620;BME280;24376;51.986;4.662;2022-09-13T02:49:07;106026.34;;;18.04;100.00
38620;BME280;24376;51.986;4.662;2022-09-13T02:54:24;106031.66;;;18.04;100.00
38620;BME280;24376;51.986;4.662;2022-09-13T02:56:56;106064.28;;;18.03;100.00
38620;BME280;24376;51.986;4.662;2022-09-13T02:59:23;106044.94;;;18.04;100.00
38620;BME280;24376;51.986;4.662;2022-09-13T03:01:49;106064.28;;;18.03;100.00
38620;BME280;24376;51.986;4.662;2022-09-13T03:04:16;106066.94;;;18.03;100.00
38620;BME280;24376;51.986;4.662;2022-09-13T03:06:42;106088.16;;;18.03;100.00
38620;BME280;24376;51.986;4.662;2022-09-13T03:14:32;106119.06;;;18.02;100.00
38620;BME280;24376;51.986;4.662;2022-09-13T03:17:10;106142.84;;;18.01;100.00
38620;BME280;24376;51.986;4.662;2022-09-13T03:22:12;106194.66;;;18.07;100.00
38620;BME280;24376;51.986;4.662;2022-09-13T03:24:48;106192.44;;;18.02;100.00
38620;BME280;24376;51.986;4.662;2022-09-13T03:27:23;106171.78;;;17.98;100.00
38620;BME280;24376;51.986;4.662;2022-09-13T03:30:06;106203.84;;;18.01;100.00
38620;BME280;24376;51.986;4.662;2022-09-13T03:32:37;106254.53;;;18.04;100.00
38620;BME280;24376;51.986;4.662;2022-09-13T03:37:56;106285.88;;;17.98;100.00
38620;BME280;24376;51.986;4.662;2022-09-13T03:40:41;106287.22;;;17.93;100.00
38620;BME280;24376;51.986;4.662;2022-09-13T03:43:11;106302.63;;;17.87;100.00
38620;BME280;24376;51.986;4.662;2022-09-13T03:45:40;106304.34;;;17.86;100.00
38620;BME280;24376;51.986;4.662;2022-09-13T03:48:06;106277.66;;;17.85;100.00
38620;BME280;24376;51.986;4.662;2022-09-13T03:50:32;106283.66;;;17.82;100.00
38620;BME280;24376;51.986;4.662;2022-09-13T03:53:04;106318.03;;;17.80;100.00
38620;BME280;24376;51.986;4.662;2022-09-13T03:55:31;106324.09;;;17.79;100.00
38620;BME280;24376;51.986;4.662;2022-09-13T03:57:57;106315.91;;;17.76;100.00
38620;BME280;24376;51.986;4.662;2022-09-13T04:00:22;106329.69;;;17.72;100.00
38620;BME280;24376;51.986;4.662;2022-09-13T04:02:47;106319.34;;;17.65;100.00
38620;BME280;24376;51.986;4.662;2022-09-13T04:05:13;106332.34;;;17.62;100.00
38620;BME280;24376;51.986;4.662;2022-09-13T04:07:38;106342.69;;;17.59;98.47
38620;BME280;24376;51.986;4.662;2022-09-13T04:10:03;106360.97;;;17.56;96.54
38620;BME280;24376;51.986;4.662;2022-09-13T04:12:28;106388.97;;;17.52;94.24
38620;BME280;24376;51.986;4.662;2022-09-13T04:14:55;106389.09;;;17.44;94.07
38620;BME280;24376;51.986;4.662;2022-09-13T04:17:20;106409.53;;;17.35;92.81
38620;BME280;24376;51.986;4.662;2022-09-13T04:19:45;106427.38;;;17.27;91.90
38620;BME280;24376;51.986;4.662;2022-09-13T04:22:11;106406.34;;;17.18;92.53
38620;BME280;24376;51.986;4.662;2022-09-13T04:24:36;106402.34;;;17.13;92.77
38620;BME280;24376;51.986;4.662;2022-09-13T04:27:02;106426.72;;;17.09;90.97
38620;BME280;24376;51.986;4.662;2022-09-13T04:29:28;106453.19;;;17.09;89.78
38620;BME280;24376;51.986;4.662;2022-09-13T04:31:53;106464.47;;;17.07;89.02
38620;BME280;24376;51.986;4.662;2022-09-13T04:34:19;106527.25;;;17.08;85.48
38620;BME280;24376;51.986;4.662;2022-09-13T04:36:49;106564.47;;;17.09;83.42
38620;BME280;24376;51.986;4.662;2022-09-13T04:39:14;106601.72;;;17.11;81.60
38620;BME280;24376;51.986;4.662;2022-09-13T04:41:40;106635.50;;;17.13;80.61
38620;BME280;24376;51.986;4.662;2022-09-13T04:44:05;106651.41;;;17.13;80.00
38620;BME280;24376;51.986;4.662;2022-09-13T04:46:30;106700.69;;;17.11;78.68
38620;BME280;24376;51.986;4.662;2022-09-13T04:48:56;106744.94;;;17.12;77.41
38620;BME280;24376;51.986;4.662;2022-09-13T04:51:21;106728.47;;;17.06;77.49
38620;BME280;24376;51.986;4.662;2022-09-13T04:53:50;106761.56;;;17.01;76.66
38620;BME280;24376;51.986;4.662;2022-09-13T04:56:16;106764.06;;;16.99;76.33
38620;BME280;24376;51.986;4.662;2022-09-13T04:58:43;106781.69;;;16.99;75.71
38620;BME280;24376;51.986;4.662;2022-09-13T05:01:09;106827.00;;;17.02;74.67
38620;BME280;24376;51.986;4.662;2022-09-13T05:03:35;106860.94;;;17.06;73.75
38620;BME280;24376;51.986;4.662;2022-09-13T05:06:07;106936.50;;;17.11;72.66
38620;BME280;24376;51.986;4.662;2022-09-13T05:08:33;106911.38;;;17.16;72.75
38620;BME280;24376;51.986;4.662;2022-09-13T05:10:58;106962.47;;;17.24;72.00
38620;BME280;24376;51.986;4.662;2022-09-13T05:13:24;107018.41;;;17.27;71.14
38620;BME280;24376;51.986;4.662;2022-09-13T05:15:53;107060.34;;;17.31;70.76
38620;BME280;24376;51.986;4.662;2022-09-13T05:18:18;107057.34;;;17.37;70.66
38620;BME280;24376;51.986;4.662;2022-09-13T05:20:43;107143.69;;;17.43;70.03
38620;BME280;24376;51.986;4.662;2022-09-13T05:23:09;107194.06;;;17.52;69.68
38620;BME280;24376;51.986;4.662;2022-09-13T05:25:34;107282.31;;;17.60;68.99
38620;BME280;24376;51.986;4.662;2022-09-13T05:27:59;107320.84;;;17.65;68.63
38620;BME280;24376;51.986;4.662;2022-09-13T05:30:24;107323.19;;;17.70;68.49
38620;BME280;24376;51.986;4.662;2022-09-13T05:32:49;107380.59;;;17.70;68.23
38620;BME280;24376;51.986;4.662;2022-09-13T05:35:14;107381.22;;;17.67;68.21
38620;BME280;24376;51.986;4.662;2022-09-13T05:37:40;107436.63;;;17.64;68.02
38620;BME280;24376;51.986;4.662;2022-09-13T05:40:05;107449.72;;;17.63;67.91
38620;BME280;24376;51.986;4.662;2022-09-13T05:42:30;107410.69;;;17.62;67.96
38620;BME280;24376;51.986;4.662;2022-09-13T05:44:55;107344.72;;;17.65;68.22
38620;BME280;24376;51.986;4.662;2022-09-13T05:47:21;107422.88;;;17.68;67.89
38620;BME280;24376;51.986;4.662;2022-09-13T05:49:46;107425.84;;;17.71;67.83
38620;BME280;24376;51.986;4.662;2022-09-13T05:52:11;107434.91;;;17.73;67.80
38620;BME280;24376;51.986;4.662;2022-09-13T05:54:36;107458.19;;;17.76;67.69
38620;BME280;24376;51.986;4.662;2022-09-13T05:57:02;107410.56;;;17.77;67.84
38620;BME280;24376;51.986;4.662;2022-09-13T05:59:27;107406.84;;;17.75;67.87
38620;BME280;24376;51.986;4.662;2022-09-13T06:01:52;107377.66;;;17.75;68.10
38620;BME280;24376;51.986;4.662;2022-09-13T06:04:17;107362.53;;;17.74;68.07
38620;BME280;24376;51.986;4.662;2022-09-13T06:06:43;107426.19;;;17.83;67.82
38620;BME280;24376;51.986;4.662;2022-09-13T06:09:09;107321.13;;;17.85;68.28
38620;BME280;24376;51.986;4.662;2022-09-13T06:11:34;107459.28;;;17.87;67.71
38620;BME280;24376;51.986;4.662;2022-09-13T06:13:59;107486.09;;;17.90;67.68
38620;BME280;24376;51.986;4.662;2022-09-13T06:16:24;107433.81;;;17.89;67.78
38620;BME280;24376;51.986;4.662;2022-09-13T06:18:50;107428.06;;;17.93;67.79
38620;BME280;24376;51.986;4.662;2022-09-13T06:21:18;107476.72;;;18.02;67.68
38620;BME280;24376;51.986;4.662;2022-09-13T06:23:45;107479.53;;;18.12;67.69
38620;BME280;24376;51.986;4.662;2022-09-13T06:26:11;107462.94;;;18.23;67.68
38620;BME280;24376;51.986;4.662;2022-09-13T06:28:37;107431.38;;;18.35;67.81
38620;BME280;24376;51.986;4.662;2022-09-13T06:31:06;107463.81;;;18.50;67.77
38620;BME280;24376;51.986;4.662;2022-09-13T06:33:32;107444.72;;;18.63;67.82
38620;BME280;24376;51.986;4.662;2022-09-13T06:36:17;107355.00;;;18.69;68.20
38620;BME280;24376;51.986;4.662;2022-09-13T06:38:43;107347.03;;;18.96;68.36
38620;BME280;24376;51.986;4.662;2022-09-13T06:41:12;107313.75;;;19.10;68.85
38620;BME280;24376;51.986;4.662;2022-09-13T06:43:38;107208.47;;;19.12;70.10
38620;BME280;24376;51.986;4.662;2022-09-13T06:46:05;107157.22;;;19.23;71.15
38620;BME280;24376;51.986;4.662;2022-09-13T06:48:31;107044.78;;;19.34;72.80
38620;BME280;24376;51.986;4.662;2022-09-13T06:50:57;106926.97;;;19.46;74.85
38620;BME280;24376;51.986;4.662;2022-09-13T06:53:22;106803.28;;;19.51;77.63
38620;BME280;24376;51.986;4.662;2022-09-13T06:55:48;106718.84;;;19.58;80.60
38620;BME280;24376;51.986;4.662;2022-09-13T06:58:15;106650.44;;;19.57;84.45
38620;BME280;24376;51.986;4.662;2022-09-13T07:00:41;106597.13;;;19.66;88.90
38620;BME280;24376;51.986;4.662;2022-09-13T07:03:06;106547.81;;;19.71;98.36
38620;BME280;24376;51.986;4.662;2022-09-13T07:05:31;106514.06;;;19.70;100.00
38620;BME280;24376;51.986;4.662;2022-09-13T07:07:56;106519.84;;;19.76;100.00
38620;BME280;24376;51.986;4.662;2022-09-13T07:10:21;106437.06;;;19.83;100.00
38620;BME280;24376;51.986;4.662;2022-09-13T07:12:46;106861.31;;;19.87;81.63
38620;BME280;24376;51.986;4.662;2022-09-13T07:15:12;106845.75;;;19.91;83.45
38620;BME280;24376;51.986;4.662;2022-09-13T07:17:37;106830.56;;;20.01;85.31
38620;BME280;24376;51.986;4.662;2022-09-13T07:20:02;106812.41;;;20.07;86.67
38620;BME280;24376;51.986;4.662;2022-09-13T07:22:31;106760.44;;;20.12;90.67
38620;BME280;24376;51.986;4.662;2022-09-13T07:24:56;106658.50;;;20.13;98.85
38620;BME280;24376;51.986;4.662;2022-09-13T07:27:21;106595.19;;;20.20;100.00
38620;BME280;24376;51.986;4.662;2022-09-13T07:29:46;106597.06;;;20.33;100.00
38620;BME280;24376;51.986;4.662;2022-09-13T07:32:11;106509.53;;;20.26;100.00
38620;BME280;24376;51.986;4.662;2022-09-13T07:34:36;106435.91;;;20.27;100.00
38620;BME280;24376;51.986;4.662;2022-09-13T07:37:02;106388.75;;;20.37;100.00
38620;BME280;24376;51.986;4.662;2022-09-13T07:39:27;106354.13;;;20.49;100.00
38620;BME280;24376;51.986;4.662;2022-09-13T07:41:52;106279.50;;;20.61;100.00
38620;BME280;24376;51.986;4.662;2022-09-13T07:44:18;106192.25;;;20.70;100.00
38620;BME280;24376;51.986;4.662;2022-09-13T07:46:43;106132.59;;;20.68;100.00
38620;BME280;24376;51.986;4.662;2022-09-13T07:49:12;106066.81;;;20.67;100.00
38620;BME280;24376;51.986;4.662;2022-09-13T07:51:39;106007.06;;;20.63;100.00
38620;BME280;24376;51.986;4.662;2022-09-13T07:54:06;105950.09;;;20.61;100.00
38620;BME280;24376;51.986;4.662;2022-09-13T07:56:35;105894.06;;;20.60;100.00
38620;BME280;24376;51.986;4.662;2022-09-13T07:59:02;105856.25;;;20.65;100.00
38620;BME280;24376;51.986;4.662;2022-09-13T08:01:39;105800.16;;;20.77;100.00
38620;BME280;24376;51.986;4.662;2022-09-13T08:04:09;105682.09;;;20.78;100.00
38620;BME280;24376;51.986;4.662;2022-09-13T08:06:36;105618.88;;;20.90;100.00
38620;BME280;24376;51.986;4.662;2022-09-13T08:09:02;105562.81;;;20.89;100.00
38620;BME280;24376;51.986;4.662;2022-09-13T08:11:29;105426.69;;;20.69;100.00
38620;BME280;24376;51.986;4.662;2022-09-13T08:13:55;105378.38;;;20.94;100.00
38620;BME280;24376;51.986;4.662;2022-09-13T08:16:21;105269.97;;;20.93;100.00
38620;BME280;24376;51.986;4.662;2022-09-13T08:18:47;105170.31;;;21.08;100.00
38620;BME280;24376;51.986;4.662;2022-09-13T08:21:13;105054.13;;;21.11;100.00
38620;BME280;24376;51.986;4.662;2022-09-13T08:23:38;104936.22;;;21.17;100.00
38620;BME280;24376;51.986;4.662;2022-09-13T08:26:04;104817.53;;;21.06;100.00
38620;BME280;24376;51.986;4.662;2022-09-13T08:28:31;104737.50;;;21.23;100.00
38620;BME280;24376;51.986;4.662;2022-09-13T08:31:04;104617.94;;;21.12;100.00
38620;BME280;24376;51.986;4.662;2022-09-13T08:33:30;104506.81;;;20.88;100.00
38620;BME280;24376;51.986;4.662;2022-09-13T08:35:56;104504.59;;;20.78;100.00
38620;BME280;24376;51.986;4.662;2022-09-13T08:38:25;104517.38;;;21.08;100.00
38620;BME280;24376;51.986;4.662;2022-09-13T08:40:55;104490.00;;;21.12;100.00
38620;BME280;24376;51.986;4.662;2022-09-13T08:43:23;104452.56;;;21.09;100.00
38620;BME280;24376;51.986;4.662;2022-09-13T08:46:00;104426.53;;;21.24;100.00
38620;BME280;24376;51.986;4.662;2022-09-13T08:48:31;104401.97;;;21.10;100.00
38620;BME280;24376;51.986;4.662;2022-09-13T08:50:57;104383.41;;;21.12;100.00
38620;BME280;24376;51.986;4.662;2022-09-13T08:53:28;104356.41;;;21.26;100.00
38620;BME280;24376;51.986;4.662;2022-09-13T08:56:05;104324.34;;;21.47;100.00
38620;BME280;24376;51.986;4.662;2022-09-13T08:58:43;104232.25;;;21.32;100.00
38620;BME280;24376;51.986;4.662;2022-09-13T09:03:40;104174.63;;;21.89;100.00
38620;BME280;24376;51.986;4.662;2022-09-13T09:06:13;104110.28;;;22.37;100.00
38620;BME280;24376;51.986;4.662;2022-09-13T09:11:09;103837.53;;;22.20;100.00
38620;BME280;24376;51.986;4.662;2022-09-13T09:16:22;103721.06;;;22.24;100.00
38620;BME280;24376;51.986;4.662;2022-09-13T09:18:50;103697.91;;;22.21;100.00
38620;BME280;24376;51.986;4.662;2022-09-13T09:21:19;103649.91;;;21.87;100.00
38620;BME280;24376;51.986;4.662;2022-09-13T09:23:49;103633.19;;;21.58;100.00
38620;BME280;24376;51.986;4.662;2022-09-13T09:26:25;103678.84;;;21.71;100.00
38620;BME280;24376;51.986;4.662;2022-09-13T09:28:54;103759.31;;;22.23;100.00
38620;BME280;24376;51.986;4.662;2022-09-13T09:33:56;103676.09;;;22.42;100.00
38620;BME280;24376;51.986;4.662;2022-09-13T09:36:36;103626.72;;;22.63;100.00
38620;BME280;24376;51.986;4.662;2022-09-13T09:39:04;103536.16;;;22.78;100.00
38620;BME280;24376;51.986;4.662;2022-09-13T09:41:30;103389.44;;;22.37;100.00
38620;BME280;24376;51.986;4.662;2022-09-13T09:46:29;103345.88;;;22.91;100.00
38620;BME280;24376;51.986;4.662;2022-09-13T09:49:00;103317.09;;;23.37;100.00
38620;BME280;24376;51.986;4.662;2022-09-13T09:51:28;103188.31;;;22.97;100.00
38620;BME280;24376;51.986;4.662;2022-09-13T09:53:56;103146.16;;;22.78;100.00
38620;BME280;24376;51.986;4.662;2022-09-13T09:56:28;103126.41;;;22.64;100.00
38620;BME280;24376;51.986;4.662;2022-09-13T09:58:54;103174.91;;;22.96;100.00
38620;BME280;24376;51.986;4.662;2022-09-13T10:01:36;103168.84;;;22.42;100.00
38620;BME280;24376;51.986;4.662;2022-09-13T10:04:05;103254.06;;;22.28;100.00
38620;BME280;24376;51.986;4.662;2022-09-13T10:06:32;103322.59;;;22.29;100.00
38620;BME280;24376;51.986;4.662;2022-09-13T10:08:59;103349.97;;;22.18;100.00
38620;BME280;24376;51.986;4.662;2022-09-13T10:14:37;103416.44;;;22.07;100.00
38620;BME280;24376;51.986;4.662;2022-09-13T10:17:04;103417.91;;;22.35;100.00
38620;BME280;24376;51.986;4.662;2022-09-13T10:19:30;103400.81;;;22.78;100.00
38620;BME280;24376;51.986;4.662;2022-09-13T10:22:10;103321.19;;;23.10;100.00
38620;BME280;24376;51.986;4.662;2022-09-13T10:24:35;103237.66;;;23.27;100.00
38620;BME280;24376;51.986;4.662;2022-09-13T10:27:00;103120.25;;;22.68;100.00
38620;BME280;24376;51.986;4.662;2022-09-13T10:29:28;103086.63;;;22.15;100.00
38620;BME280;24376;51.986;4.662;2022-09-13T10:31:53;103138.97;;;21.54;100.00
38620;BME280;24376;51.986;4.662;2022-09-13T10:34:22;103271.19;;;21.91;100.00
38620;BME280;24376;51.986;4.662;2022-09-13T10:39:16;103340.63;;;22.99;100.00
38620;BME280;24376;51.986;4.662;2022-09-13T10:41:46;103216.13;;;23.15;100.00
38620;BME280;24376;51.986;4.662;2022-09-13T10:46:58;102991.47;;;22.96;100.00
38620;BME280;24376;51.986;4.662;2022-09-13T10:54:54;102943.88;;;22.60;100.00
38620;BME280;24376;51.986;4.662;2022-09-13T10:57:33;102947.13;;;22.30;100.00
38620;BME280;24376;51.986;4.662;2022-09-13T10:59:59;102954.50;;;22.51;100.00
38620;BME280;24376;51.986;4.662;2022-09-13T11:02:31;102954.66;;;22.68;100.00
38620;BME280;24376;51.986;4.662;2022-09-13T11:05:05;102915.59;;;22.79;100.00
38620;BME280;24376;51.986;4.662;2022-09-13T11:10:04;102872.97;;;22.94;100.00
38620;BME280;24376;51.986;4.662;2022-09-13T11:23:01;102760.00;;;23.17;100.00
38620;BME280;24376;51.986;4.662;2022-09-13T11:30:48;102685.06;;;22.89;100.00
38620;BME280;24376;51.986;4.662;2022-09-13T11:36:19;102607.50;;;22.68;100.00
38620;BME280;24376;51.986;4.662;2022-09-13T11:38:57;102604.88;;;22.80;100.00
38620;BME280;24376;51.986;4.662;2022-09-13T11:52:25;102398.31;;;22.84;100.00
38620;BME280;24376;51.986;4.662;2022-09-13T11:57:26;102259.47;;;22.79;100.00
38620;BME280;24376;51.986;4.662;2022-09-13T11:59:54;102221.06;;;23.20;100.00
38620;BME280;24376;51.986;4.662;2022-09-13T12:05:07;102419.72;;;23.27;100.00
38620;BME280;24376;51.986;4.662;2022-09-13T12:07:39;102226.38;;;23.28;100.00
38620;BME280;24376;51.986;4.662;2022-09-13T12:10:22;102133.78;;;23.21;100.00
38620;BME280;24376;51.986;4.662;2022-09-13T12:12:49;102074.31;;;22.73;100.00
38620;BME280;24376;51.986;4.662;2022-09-13T12:15:17;102063.25;;;23.43;100.00
38620;BME280;24376;51.986;4.662;2022-09-13T12:17:52;102064.28;;;23.25;100.00
38620;BME280;24376;51.986;4.662;2022-09-13T12:20:29;102018.53;;;23.63;100.00
38620;BME280;24376;51.986;4.662;2022-09-13T12:22:54;101961.19;;;23.92;100.00
38620;BME280;24376;51.986;4.662;2022-09-13T12:25:23;101895.16;;;23.94;100.00
38620;BME280;24376;51.986;4.662;2022-09-13T12:30:15;101790.63;;;23.40;100.00
38620;BME280;24376;51.986;4.662;2022-09-13T12:32:41;101734.59;;;23.32;100.00
38620;BME280;24376;51.986;4.662;2022-09-13T12:40:04;101507.31;;;23.40;100.00
38620;BME280;24376;51.986;4.662;2022-09-13T12:42:56;101456.41;;;22.92;100.00
38620;BME280;24376;51.986;4.662;2022-09-13T12:45:41;101303.38;;;23.81;100.00
38620;BME280;24376;51.986;4.662;2022-09-13T13:03:58;100449.56;;;23.25;100.00
38620;BME280;24376;51.986;4.662;2022-09-13T13:06:28;100484.06;;;23.04;100.00
38620;BME280;24376;51.986;4.662;2022-09-13T13:08:56;100438.75;;;23.56;100.00
38620;BME280;24376;51.986;4.662;2022-09-13T13:11:23;100406.84;;;23.78;100.00
38620;BME280;24376;51.986;4.662;2022-09-13T13:13:54;100447.72;;;23.53;100.00
38620;BME280;24376;51.986;4.662;2022-09-13T13:16:22;100385.31;;;24.06;100.00
38620;BME280;24376;51.986;4.662;2022-09-13T13:18:49;100459.69;;;23.70;100.00
38620;BME280;24376;51.986;4.662;2022-09-13T13:31:40;100488.53;;;24.38;100.00
38620;BME280;24376;51.986;4.662;2022-09-13T13:41:55;100706.41;;;22.77;100.00
38620;BME280;24376;51.986;4.662;2022-09-13T13:46:50;100708.69;;;23.25;100.00
38620;BME280;24376;51.986;4.662;2022-09-13T13:57:31;100643.94;;;24.83;100.00
38620;BME280;24376;51.986;4.662;2022-09-13T14:00:05;100652.28;;;24.74;100.00
38620;BME280;24376;51.986;4.662;2022-09-13T14:02:38;100825.56;;;23.17;100.00
38620;BME280;24376;51.986;4.662;2022-09-13T14:05:08;100832.34;;;23.30;100.00
38620;BME280;24376;51.986;4.662;2022-09-13T14:10:27;100807.78;;;23.81;100.00
38620;BME280;24376;51.986;4.662;2022-09-13T14:13:14;100735.97;;;24.54;100.00
38620;BME280;24376;51.986;4.662;2022-09-13T14:15:50;100824.31;;;23.64;100.00
38620;BME280;24376;51.986;4.662;2022-09-13T14:18:25;100859.06;;;23.64;100.00
38620;BME280;24376;51.986;4.662;2022-09-13T14:20:59;100783.44;;;24.76;100.00
38620;BME280;24376;51.986;4.662;2022-09-13T14:23:24;100797.97;;;24.68;100.00
38620;BME280;24376;51.986;4.662;2022-09-13T14:25:53;100848.00;;;24.38;100.00
38620;BME280;24376;51.986;4.662;2022-09-13T14:28:20;100880.44;;;24.57;100.00
38620;BME280;24376;51.986;4.662;2022-09-13T14:30:45;100889.75;;;24.74;100.00
38620;BME280;24376;51.986;4.662;2022-09-13T14:33:21;100964.00;;;24.05;100.00
38620;BME280;24376;51.986;4.662;2022-09-13T14:35:55;100962.41;;;24.30;100.00
38620;BME280;24376;51.986;4.662;2022-09-13T14:38:25;100976.88;;;24.23;100.00
38620;BME280;24376;51.986;4.662;2022-09-13T14:40:57;101007.84;;;24.01;100.00
38620;BME280;24376;51.986;4.662;2022-09-13T14:43:24;101022.09;;;24.00;100.00
38620;BME280;24376;51.986;4.662;2022-09-13T14:46:01;100967.91;;;24.86;100.00
38620;BME280;24376;51.986;4.662;2022-09-13T14:48:35;101062.81;;;23.77;100.00
38620;BME280;24376;51.986;4.662;2022-09-13T14:51:06;101066.34;;;23.79;100.00
38620;BME280;24376;51.986;4.662;2022-09-13T14:53:36;101042.13;;;24.17;100.00
38620;BME280;24376;51.986;4.662;2022-09-13T14:56:10;101127.88;;;23.37;100.00
38620;BME280;24376;51.986;4.662;2022-09-13T14:58:42;101050.44;;;24.41;100.00
38620;BME280;24376;51.986;4.662;2022-09-13T15:01:10;101037.72;;;24.80;100.00
38620;BME280;24376;51.986;4.662;2022-09-13T15:03:39;101116.03;;;23.87;100.00
38620;BME280;24376;51.986;4.662;2022-09-13T15:06:04;101125.56;;;23.60;100.00
38620;BME280;24376;51.986;4.662;2022-09-13T15:08:44;101158.81;;;23.47;100.00
38620;BME280;24376;51.986;4.662;2022-09-13T15:11:14;101215.97;;;22.46;100.00
38620;BME280;24376;51.986;4.662;2022-09-13T15:13:40;101209.00;;;22.39;100.00
38620;BME280;24376;51.986;4.662;2022-09-13T15:16:25;101203.78;;;22.29;100.00
38620;BME280;24376;51.986;4.662;2022-09-13T15:22:00;101244.41;;;21.88;100.00
38620;BME280;24376;51.986;4.662;2022-09-13T15:24:36;101261.69;;;21.57;100.00
38620;BME280;24376;51.986;4.662;2022-09-13T15:27:06;101247.31;;;21.68;100.00
38620;BME280;24376;51.986;4.662;2022-09-13T15:29:32;101227.22;;;22.09;100.00
38620;BME280;24376;51.986;4.662;2022-09-13T15:31:59;101239.66;;;22.07;100.00